Time;durP1;ratioP1;P1;durP2;ratioP2;P2;SDS_P1;SDS_P2;PMS_P1;PMS_P2;Temp;Humidity;BMP_temperature;BMP_pressure;BME280_temperature;BME280_humidity;BME280_pressure;Samples;Min_cycle;Max_cycle;Signal;HPM_P1;HPM_P2
2021/04/17 00:02:21;;;;;;;11.60;9.65;;;17.80;99.90;;;;;;5073773;28;20020;-61
2021/04/17 00:04:49;;;;;;;11.90;9.10;;;17.70;99.90;;;;;;5073653;28;20024;-61
2021/04/17 00:07:17;;;;;;;13.68;10.27;;;17.50;99.90;;;;;;5073537;28;20358;-61
2021/04/17 00:09:45;;;;;;;11.95;10.07;;;17.60;99.90;;;;;;5072647;28;20021;-62
2021/04/17 00:12:18;;;;;;;11.25;9.57;;;17.50;99.90;;;;;;5073510;28;20469;-64
2021/04/17 00:14:50;;;;;;;11.93;9.68;;;17.70;99.90;;;;;;5073568;28;20602;-64
2021/04/17 00:17:20;;;;;;;11.15;8.70;;;17.80;99.90;;;;;;5073613;28;20091;-64
2021/04/17 00:19:51;;;;;;;16.38;9.00;;;17.80;99.90;;;;;;5073494;28;20085;-64
2021/04/17 00:22:18;;;;;;;12.27;9.45;;;18.00;99.90;;;;;;5073397;28;20044;-65
2021/04/17 00:24:46;;;;;;;13.93;10.05;;;18.10;99.90;;;;;;5073293;28;20028;-64
2021/04/17 00:27:14;;;;;;;11.50;10.40;;;18.10;99.90;;;;;;5073231;28;20082;-65
2021/04/17 00:29:42;;;;;;;12.65;10.82;;;18.10;99.90;;;;;;5073252;28;20507;-65
2021/04/17 00:32:22;;;;;;;10.73;9.48;;;18.10;99.90;;;;;;5073232;28;20047;-63
2021/04/17 00:34:49;;;;;;;27.42;12.13;;;18.30;99.90;;;;;;5073391;28;20545;-65
2021/04/17 00:37:16;;;;;;;125.40;29.42;;;18.40;99.90;;;;;;5073181;28;20020;-60
2021/04/17 00:39:44;;;;;;;125.75;28.73;;;18.40;99.90;;;;;;5073015;28;20079;-59
2021/04/17 00:42:11;;;;;;;61.50;17.10;;;18.50;99.90;;;;;;5073045;28;20451;-59
2021/04/17 00:44:39;;;;;;;11.95;9.43;;;18.70;99.90;;;;;;5072816;28;20027;-59
2021/04/17 00:47:07;;;;;;;10.13;9.00;;;18.80;99.90;;;;;;5072715;28;20044;-58
2021/04/17 00:49:35;;;;;;;10.20;8.75;;;19.00;99.90;;;;;;5072832;28;20017;-61
2021/04/17 00:52:03;;;;;;;15.95;9.32;;;19.00;99.90;;;;;;5072899;28;20024;-59
2021/04/17 00:54:30;;;;;;;11.85;9.10;;;19.10;99.90;;;;;;5072916;28;20067;-59
2021/04/17 00:56:57;;;;;;;24.75;11.15;;;19.00;99.90;;;;;;5072865;28;20025;-59
2021/04/17 00:59:24;;;;;;;13.25;8.38;;;19.20;99.90;;;;;;5072965;28;20025;-59
2021/04/17 01:01:52;;;;;;;11.45;8.15;;;19.10;99.90;;;;;;5072765;28;20021;-60
2021/04/17 01:04:25;;;;;;;10.88;8.15;;;19.20;99.90;;;;;;5072769;28;20111;-60
2021/04/17 01:06:58;;;;;;;11.88;7.57;;;19.40;99.90;;;;;;5072741;28;20021;-59
2021/04/17 01:09:40;;;;;;;10.02;7.25;;;19.50;99.90;;;;;;5072763;28;20389;-60
2021/04/17 01:12:14;;;;;;;13.73;8.07;;;19.60;99.90;;;;;;5071407;28;20021;-63
2021/04/17 01:14:46;;;;;;;10.70;7.88;;;19.60;99.90;;;;;;5072517;28;20028;-62
2021/04/17 01:17:14;;;;;;;8.73;7.95;;;19.80;99.90;;;;;;5072585;28;20020;-59
2021/04/17 01:19:48;;;;;;;8.10;7.22;;;19.80;99.90;;;;;;5072634;28;20103;-60
2021/04/17 01:22:22;;;;;;;8.40;7.43;;;20.00;99.20;;;;;;5076785;28;20028;-60
2021/04/17 01:25:14;;;;;;;8.15;7.38;;;20.00;99.30;;;;;;5076686;28;20020;-60
2021/04/17 01:27:41;;;;;;;9.57;7.57;;;20.00;99.60;;;;;;5069526;28;20175;-61
2021/04/17 01:30:18;;;;;;;7.55;6.85;;;20.20;99.60;;;;;;5076486;28;20358;-61
2021/04/17 01:32:48;;;;;;;8.27;6.45;;;20.10;97.60;;;;;;5076556;28;20023;-60
2021/04/17 01:35:19;;;;;;;8.25;7.15;;;20.00;97.40;;;;;;5058425;28;20423;-60
2021/04/17 01:37:52;;;;;;;8.20;6.97;;;19.90;98.70;;;;;;5075084;28;20104;-61
2021/04/17 01:40:23;;;;;;;8.63;7.47;;;19.60;97.70;;;;;;5076166;28;20129;-60
2021/04/17 01:42:51;;;;;;;11.95;7.30;;;19.20;98.40;;;;;;5076599;28;20350;-60
2021/04/17 01:45:22;;;;;;;8.45;7.20;;;19.30;99.30;;;;;;5076137;28;20025;-61
2021/04/17 01:47:50;;;;;;;;;;;19.50;99.40;;;;;;5076605;28;20023;-59
2021/04/17 01:50:19;;;;;;;9.38;7.93;;;19.50;98.20;;;;;;5076130;28;20357;-60
2021/04/17 01:52:48;;;;;;;8.23;7.28;;;19.70;98.50;;;;;;5076022;28;20021;-59
2021/04/17 01:55:17;;;;;;;8.05;6.93;;;19.70;98.80;;;;;;5076000;28;20017;-59
2021/04/17 01:57:45;;;;;;;7.43;6.68;;;19.80;98.30;;;;;;5075933;28;20016;-59
2021/04/17 02:00:13;;;;;;;7.75;6.95;;;19.70;98.00;;;;;;5075935;28;20027;-59
2021/04/17 02:02:41;;;;;;;9.30;6.72;;;19.60;98.30;;;;;;5074475;28;20031;-59
2021/04/17 02:05:09;;;;;;;7.63;6.82;;;19.70;98.90;;;;;;5075756;28;20021;-59
2021/04/17 02:07:36;;;;;;;7.15;6.45;;;19.80;98.50;;;;;;5075939;28;20487;-59
2021/04/17 02:10:06;;;;;;;6.72;6.10;;;19.80;98.60;;;;;;5075816;28;20028;-60
2021/04/17 02:12:33;;;;;;;6.57;5.90;;;19.80;98.70;;;;;;5075650;28;20021;-60
2021/04/17 02:15:02;;;;;;;6.90;6.20;;;19.70;98.60;;;;;;5075807;28;20105;-60
2021/04/17 02:17:57;;;;;;;7.25;5.55;;;19.70;98.30;;;;;;5075909;28;20476;-60
2021/04/17 02:20:47;;;;;;;6.47;5.85;;;19.50;97.30;;;;;;5070113;28;20060;-60
2021/04/17 02:23:16;;;;;;;7.00;6.07;;;19.40;98.10;;;;;;5075779;28;20032;-61
2021/04/17 02:25:43;;;;;;;9.30;6.80;;;19.40;97.80;;;;;;5075505;28;20509;-61
2021/04/17 02:28:11;;;;;;;6.85;6.45;;;19.30;97.60;;;;;;5075469;28;20024;-60
2021/04/17 02:30:39;;;;;;;8.30;6.78;;;19.20;97.80;;;;;;5075465;28;20055;-60
2021/04/17 02:33:06;;;;;;;7.80;6.57;;;19.20;98.50;;;;;;5074394;28;20056;-59
2021/04/17 02:35:34;;;;;;;8.85;7.05;;;19.10;98.50;;;;;;5075322;28;20020;-59
2021/04/17 02:38:01;;;;;;;7.47;6.80;;;19.10;99.50;;;;;;5075273;28;20042;-59
2021/04/17 02:40:28;;;;;;;7.30;6.60;;;19.00;99.00;;;;;;5074994;28;20051;-58
2021/04/17 02:42:56;;;;;;;9.18;7.30;;;19.00;98.40;;;;;;5075218;28;20028;-60
2021/04/17 02:45:23;;;;;;;6.78;6.20;;;18.90;98.30;;;;;;5074938;28;20456;-60
2021/04/17 02:47:50;;;;;;;6.50;5.90;;;18.80;97.70;;;;;;5074967;28;20021;-60
2021/04/17 02:50:19;;;;;;;6.78;5.63;;;18.80;98.30;;;;;;5074977;28;20024;-60
2021/04/17 02:52:48;;;;;;;7.50;6.88;;;18.80;99.20;;;;;;5074928;28;20393;-59
2021/04/17 02:55:17;;;;;;;6.70;6.20;;;18.80;99.20;;;;;;5073617;28;20469;-60
2021/04/17 02:57:45;;;;;;;8.98;6.95;;;18.80;99.50;;;;;;5074907;28;20021;-60
2021/04/17 03:00:15;;;;;;;6.53;5.90;;;18.80;99.80;;;;;;5074793;28;20026;-59
2021/04/17 03:02:42;;;;;;;8.60;6.70;;;18.70;99.90;;;;;;5074811;28;20048;-60
2021/04/17 03:05:11;;;;;;;6.60;6.18;;;18.70;99.90;;;;;;5073491;28;20465;-62
2021/04/17 03:07:38;;;;;;;7.18;6.63;;;18.70;99.90;;;;;;5074531;28;20020;-60
2021/04/17 03:10:07;;;;;;;7.18;5.80;;;18.70;99.80;;;;;;5074653;28;20025;-60
2021/04/17 03:12:35;;;;;;;10.35;6.35;;;18.60;98.70;;;;;;5074631;28;20103;-60
2021/04/17 03:15:04;;;;;;;8.32;6.63;;;18.50;98.40;;;;;;5074752;28;20017;-59
2021/04/17 03:17:31;;;;;;;7.93;6.03;;;18.50;98.80;;;;;;5074698;28;20047;-60
2021/04/17 03:20:00;;;;;;;6.43;5.82;;;18.50;98.80;;;;;;5074396;28;20053;-60
2021/04/17 03:22:27;;;;;;;7.07;6.38;;;18.50;99.40;;;;;;5074297;28;20024;-59
2021/04/17 03:24:54;;;;;;;8.07;6.68;;;18.40;99.10;;;;;;5074357;28;20032;-60
2021/04/17 03:27:22;;;;;;;7.00;6.50;;;18.40;98.30;;;;;;5074186;28;20032;-59
2021/04/17 03:29:49;;;;;;;6.72;6.20;;;18.40;99.30;;;;;;5074230;28;20024;-60
2021/04/17 03:32:17;;;;;;;7.15;6.50;;;18.50;99.60;;;;;;5074155;28;20021;-60
2021/04/17 03:34:44;;;;;;;6.90;6.30;;;18.50;99.90;;;;;;5074096;28;20021;-59
2021/04/17 03:37:12;;;;;;;6.93;6.40;;;18.50;99.90;;;;;;5074032;28;20477;-60
2021/04/17 03:39:39;;;;;;;7.00;6.50;;;18.60;99.80;;;;;;5073812;28;20040;-60
2021/04/17 03:42:07;;;;;;;6.45;5.85;;;18.50;99.40;;;;;;5073981;28;20070;-60
2021/04/17 03:44:34;;;;;;;6.55;5.95;;;18.50;98.50;;;;;;5073763;28;20439;-60
2021/04/17 03:47:01;;;;;;;7.28;6.53;;;18.50;98.90;;;;;;5073706;28;20033;-60
2021/04/17 03:49:31;;;;;;;7.28;6.30;;;18.50;99.50;;;;;;5073669;28;20410;-61
2021/04/17 03:51:58;;;;;;;6.20;5.60;;;18.50;99.70;;;;;;5073934;28;20039;-61
2021/04/17 03:54:26;;;;;;;6.20;5.53;;;18.40;99.90;;;;;;5073778;28;20013;-61
2021/04/17 03:56:53;;;;;;;6.72;5.82;;;18.40;99.90;;;;;;5072458;28;20035;-60
2021/04/17 03:59:20;;;;;;;7.03;5.72;;;18.50;99.90;;;;;;5073686;28;20427;-60
2021/04/17 04:01:48;;;;;;;5.30;4.80;;;18.50;99.90;;;;;;5073577;28;20044;-60
2021/04/17 04:04:15;;;;;;;7.97;5.28;;;18.50;99.90;;;;;;5073437;28;20029;-60
2021/04/17 04:06:43;;;;;;;5.32;4.80;;;18.40;99.90;;;;;;5073466;28;20430;-60
2021/04/17 04:09:10;;;;;;;5.70;5.20;;;18.30;99.90;;;;;;5073360;28;20013;-60
2021/04/17 04:11:37;;;;;;;7.70;5.10;;;18.30;99.90;;;;;;5073391;28;20428;-60
2021/04/17 04:14:05;;;;;;;5.68;5.15;;;18.30;99.90;;;;;;5073401;28;20431;-60
2021/04/17 04:16:32;;;;;;;6.47;5.85;;;18.30;99.90;;;;;;5073305;28;20025;-60
2021/04/17 04:18:59;;;;;;;6.97;5.63;;;18.40;99.90;;;;;;5073178;28;20029;-60
2021/04/17 04:21:27;;;;;;;5.93;5.43;;;18.30;99.70;;;;;;5073176;28;20395;-60
2021/04/17 04:23:54;;;;;;;5.80;5.30;;;18.30;99.70;;;;;;5073079;28;20365;-60
2021/04/17 04:26:22;;;;;;;9.80;5.68;;;18.20;99.90;;;;;;5073006;28;20039;-62
2021/04/17 04:28:49;;;;;;;6.00;5.15;;;18.30;99.80;;;;;;5073059;28;20025;-59
2021/04/17 04:31:16;;;;;;;5.80;5.25;;;18.30;99.40;;;;;;5072979;28;20047;-60
2021/04/17 04:33:44;;;;;;;9.40;6.13;;;18.30;99.50;;;;;;5072886;28;20024;-59
2021/04/17 04:36:11;;;;;;;6.10;5.47;;;18.20;98.90;;;;;;5071612;28;20085;-59
2021/04/17 04:38:38;;;;;;;5.90;5.10;;;18.20;99.60;;;;;;5072740;28;20037;-59
2021/04/17 04:41:06;;;;;;;6.30;5.68;;;18.30;99.90;;;;;;5072982;28;20039;-59
2021/04/17 04:43:33;;;;;;;6.38;5.88;;;18.20;99.90;;;;;;5072978;28;20024;-60
2021/04/17 04:46:00;;;;;;;6.60;5.93;;;18.20;99.90;;;;;;5072735;28;20074;-60
2021/04/17 04:48:28;;;;;;;7.90;6.35;;;18.20;99.90;;;;;;5073235;28;20029;-59
2021/04/17 04:50:55;;;;;;;9.30;6.43;;;18.20;99.90;;;;;;5072738;28;20393;-59
2021/04/17 04:53:22;;;;;;;7.00;6.40;;;18.30;99.90;;;;;;5072776;28;20021;-59
2021/04/17 04:55:50;;;;;;;8.43;6.50;;;18.50;99.90;;;;;;5072147;28;20017;-60
2021/04/17 04:58:17;;;;;;;7.05;5.50;;;18.70;99.90;;;;;;5072819;28;20073;-60
2021/04/17 05:00:44;;;;;;;8.60;5.28;;;18.80;99.90;;;;;;5072686;28;20154;-60
2021/04/17 05:03:12;;;;;;;6.45;5.80;;;19.00;99.90;;;;;;5072557;28;20067;-60
2021/04/17 05:05:39;;;;;;;7.00;5.80;;;19.10;99.90;;;;;;5071205;28;20556;-60
2021/04/17 05:08:06;;;;;;;7.97;5.88;;;19.10;99.90;;;;;;5072577;28;20012;-60
2021/04/17 05:10:34;;;;;;;7.55;6.90;;;19.20;99.90;;;;;;5072762;28;20021;-60
2021/04/17 05:13:01;;;;;;;9.73;7.50;;;19.40;99.90;;;;;;5072572;28;20025;-60
2021/04/17 05:15:29;;;;;;;10.82;7.78;;;19.40;99.90;;;;;;5072639;28;20454;-60
2021/04/17 05:17:56;;;;;;;13.32;9.13;;;19.30;99.90;;;;;;5072537;28;20024;-60
2021/04/17 05:20:23;;;;;;;12.10;9.85;;;19.20;99.90;;;;;;5072508;28;20021;-61
2021/04/17 05:22:51;;;;;;;13.70;11.93;;;19.10;99.90;;;;;;5072395;28;20626;-61
2021/04/17 05:25:18;;;;;;;15.68;11.45;;;19.10;99.90;;;;;;5072531;28;20021;-59
2021/04/17 05:27:45;;;;;;;14.85;13.23;;;19.00;99.90;;;;;;5072263;28;20027;-59
2021/04/17 05:30:13;;;;;;;17.08;15.15;;;19.10;99.90;;;;;;5072433;28;20021;-58
2021/04/17 05:32:41;;;;;;;19.45;17.38;;;19.10;99.90;;;;;;5072379;28;20074;-61
2021/04/17 05:35:09;;;;;;;18.98;16.98;;;19.10;99.90;;;;;;5072413;28;20016;-61
2021/04/17 05:37:36;;;;;;;21.35;19.10;;;19.00;99.90;;;;;;5071071;28;20040;-62
2021/04/17 05:40:05;;;;;;;22.10;19.70;;;19.00;99.90;;;;;;5072062;28;20055;-61
2021/04/17 05:42:32;;;;;;;25.45;22.73;;;19.00;99.90;;;;;;5072397;28;20029;-62
2021/04/17 05:44:59;;;;;;;23.30;19.95;;;19.00;99.90;;;;;;5071011;28;20033;-62
2021/04/17 05:47:27;;;;;;;29.10;25.88;;;19.00;99.90;;;;;;5072145;28;20108;-62
2021/04/17 05:49:54;;;;;;;34.40;30.90;;;18.90;99.90;;;;;;5072110;28;20017;-61
2021/04/17 05:52:21;;;;;;;34.28;30.80;;;18.90;99.90;;;;;;5072188;28;20025;-61
2021/04/17 05:54:49;;;;;;;45.25;39.88;;;18.90;99.90;;;;;;5072257;28;20095;-60
2021/04/17 05:57:16;;;;;;;53.42;47.80;;;18.70;99.90;;;;;;5072249;28;20032;-60
2021/04/17 05:59:43;;;;;;;65.72;58.80;;;18.60;99.90;;;;;;5072264;28;20033;-60
2021/04/17 06:02:10;;;;;;;69.18;61.80;;;18.60;99.90;;;;;;5072228;28;20052;-61
2021/04/17 06:04:38;;;;;;;76.03;67.70;;;18.60;99.90;;;;;;5072189;28;20077;-62
2021/04/17 06:07:05;;;;;;;77.43;69.45;;;18.60;99.90;;;;;;5074068;28;20021;-62
2021/04/17 06:09:32;;;;;;;75.78;67.80;;;18.40;99.90;;;;;;5075823;28;20032;-62
2021/04/17 06:12:00;;;;;;;83.60;75.03;;;18.40;99.90;;;;;;5075960;28;20028;-61
2021/04/17 06:14:27;;;;;;;69.18;62.08;;;18.30;99.90;;;;;;5075796;28;20036;-62
2021/04/17 06:16:54;;;;;;;101.68;91.15;;;18.20;99.90;;;;;;5075677;28;20034;-62
2021/04/17 06:19:22;;;;;;;122.25;109.88;;;18.10;99.90;;;;;;5075689;28;20430;-62
2021/04/17 06:21:49;;;;;;;105.68;95.00;;;18.10;99.90;;;;;;5075675;28;20020;-61
2021/04/17 06:24:16;;;;;;;90.00;80.78;;;18.10;99.90;;;;;;5075705;28;20078;-61
2021/04/17 06:26:44;;;;;;;77.70;69.68;;;18.10;99.90;;;;;;5075440;28;20082;-58
2021/04/17 06:29:11;;;;;;;84.95;76.55;;;18.10;99.90;;;;;;5075306;28;20511;-58
2021/04/17 06:31:39;;;;;;;72.68;64.90;;;18.10;99.90;;;;;;5075422;28;20071;-58
2021/04/17 06:34:06;;;;;;;72.35;61.67;;;18.10;99.90;;;;;;5075289;28;20477;-60
2021/04/17 06:36:34;;;;;;;57.58;51.75;;;18.10;99.90;;;;;;5075177;28;20095;-60
2021/04/17 06:39:03;;;;;;;57.22;51.13;;;18.00;99.90;;;;;;5075208;28;20063;-61
2021/04/17 06:41:33;;;;;;;50.10;44.90;;;17.90;99.90;;;;;;5075338;28;20100;-60
2021/04/17 06:44:07;;;;;;;41.15;36.90;;;18.00;99.90;;;;;;5075193;28;20040;-61
2021/04/17 06:46:37;;;;;;;36.38;32.65;;;18.00;99.90;;;;;;5074948;28;20043;-63
2021/04/17 06:49:07;;;;;;;30.35;27.33;;;18.00;99.90;;;;;;5075270;28;20557;-63
2021/04/17 06:51:37;;;;;;;25.35;23.05;;;18.00;99.90;;;;;;5075070;28;20028;-63
2021/04/17 06:54:06;;;;;;;21.02;19.05;;;18.00;99.90;;;;;;5075025;28;20112;-63
2021/04/17 06:56:33;;;;;;;19.88;17.90;;;18.00;99.90;;;;;;5075119;28;20020;-63
2021/04/17 06:59:01;;;;;;;16.90;15.52;;;18.00;99.90;;;;;;5073714;28;20024;-63
2021/04/17 07:01:30;;;;;;;16.05;14.45;;;17.90;99.90;;;;;;5074842;28;20020;-60
2021/04/17 07:03:59;;;;;;;15.20;13.55;;;17.90;99.90;;;;;;5074722;28;20020;-62
2021/04/17 07:06:26;;;;;;;13.45;12.25;;;17.90;99.90;;;;;;5074672;28;20032;-61
2021/04/17 07:08:54;;;;;;;13.30;12.00;;;17.90;99.90;;;;;;5074770;28;20026;-61
2021/04/17 07:11:21;;;;;;;19.42;16.70;;;17.90;99.90;;;;;;5074637;28;20025;-61
2021/04/17 07:14:06;;;;;;;15.13;13.63;;;17.90;99.90;;;;;;5074623;28;20100;-62
2021/04/17 07:16:54;;;;;;;15.18;13.98;;;17.80;99.90;;;;;;5074476;28;20029;-61
2021/04/17 07:19:23;;;;;;;17.25;15.60;;;17.70;99.90;;;;;;5073931;28;20103;-62
2021/04/17 07:21:51;;;;;;;15.23;13.93;;;17.70;99.90;;;;;;5074595;28;20493;-61
2021/04/17 07:24:27;;;;;;;34.60;31.25;;;17.60;99.90;;;;;;5072878;28;20496;-61
2021/04/17 07:26:54;;;;;;;23.52;21.42;;;17.40;99.90;;;;;;5074510;28;20020;-61
2021/04/17 07:29:22;;;;;;;24.70;22.15;;;17.30;99.90;;;;;;5074170;28;20024;-62
2021/04/17 07:31:55;;;;;;;17.88;16.27;;;17.30;99.90;;;;;;5074190;28;20017;-61
2021/04/17 07:34:25;;;;;;;14.05;12.73;;;17.20;99.90;;;;;;5074198;28;20020;-62
2021/04/17 07:36:55;;;;;;;16.95;12.77;;;17.10;99.90;;;;;;5074108;28;20021;-61
2021/04/17 07:39:32;;;;;;;15.52;13.50;;;17.10;99.90;;;;;;5073813;28;20063;-61
2021/04/17 07:42:02;;;;;;;14.52;13.20;;;16.90;99.90;;;;;;5074014;28;20028;-61
2021/04/17 07:44:35;;;;;;;14.35;13.18;;;16.80;99.90;;;;;;5073866;28;20039;-60
2021/04/17 07:47:03;;;;;;;16.17;14.88;;;16.70;99.90;;;;;;5073786;28;20024;-60
2021/04/17 07:49:31;;;;;;;14.75;13.35;;;16.60;99.90;;;;;;5073478;28;20443;-62
2021/04/17 07:52:11;;;;;;;13.88;12.65;;;16.50;99.90;;;;;;5073757;28;20521;-61
2021/04/17 07:55:02;;;;;;;14.73;13.27;;;16.50;99.90;;;;;;5073705;28;20021;-61
2021/04/17 07:57:35;;;;;;;;;;;16.40;99.90;;;;;;5074258;28;20050;-61
2021/04/17 08:00:06;;;;;;;19.90;18.20;;;16.30;99.90;;;;;;5073632;28;19904;-62
2021/04/17 08:02:35;;;;;;;18.08;16.67;;;16.30;99.90;;;;;;5073730;28;20038;-62
2021/04/17 08:05:04;;;;;;;18.60;17.05;;;16.20;99.90;;;;;;5073439;28;20028;-61
2021/04/17 08:07:34;;;;;;;20.33;18.35;;;16.10;99.90;;;;;;5073342;28;20028;-60
2021/04/17 08:10:02;;;;;;;17.63;16.15;;;16.00;99.90;;;;;;5073375;28;20029;-61
2021/04/17 08:12:30;;;;;;;30.10;27.25;;;16.00;99.90;;;;;;5073418;28;20024;-60
2021/04/17 08:14:57;;;;;;;20.98;19.17;;;16.00;99.90;;;;;;5073510;28;20064;-60
2021/04/17 08:17:25;;;;;;;22.50;20.73;;;15.90;99.90;;;;;;5073258;28;20118;-60
2021/04/17 08:19:56;;;;;;;23.67;21.77;;;15.90;99.90;;;;;;5073141;28;20024;-59
2021/04/17 08:22:26;;;;;;;20.15;18.77;;;15.80;99.90;;;;;;5073205;28;20032;-60
2021/04/17 08:24:54;;;;;;;20.65;19.00;;;15.80;99.90;;;;;;5073208;28;20033;-60
2021/04/17 08:27:22;;;;;;;20.17;18.65;;;15.80;99.90;;;;;;5073053;28;20038;-60
2021/04/17 08:29:54;;;;;;;20.13;18.42;;;15.80;99.90;;;;;;5072342;28;20070;-60
2021/04/17 08:32:35;;;;;;;21.08;19.20;;;15.80;99.90;;;;;;5073641;28;20463;-60
2021/04/17 08:35:11;;;;;;;22.33;20.23;;;15.80;99.90;;;;;;5073098;28;20384;-60
2021/04/17 08:37:54;;;;;;;22.75;20.75;;;15.80;99.90;;;;;;5073168;28;20032;-60
2021/04/17 08:40:39;;;;;;;20.95;19.40;;;15.80;99.90;;;;;;5072842;28;20529;-60
2021/04/17 08:43:16;;;;;;;21.20;19.65;;;15.70;99.90;;;;;;5073117;28;20477;-60
2021/04/17 08:46:14;;;;;;;23.23;21.38;;;15.70;99.90;;;;;;5072796;28;20024;-60
2021/04/17 08:48:58;;;;;;;26.58;24.27;;;15.70;99.90;;;;;;5071615;28;20074;-60
2021/04/17 08:51:37;;;;;;;26.73;24.73;;;15.70;99.90;;;;;;5072953;28;20017;-61
2021/04/17 08:54:09;;;;;;;25.47;23.47;;;15.60;99.90;;;;;;5073009;28;20371;-61
2021/04/17 08:57:00;;;;;;;24.60;22.75;;;15.50;99.90;;;;;;5072775;28;20032;-61
2021/04/17 08:59:29;;;;;;;24.10;22.23;;;15.40;99.90;;;;;;5071580;28;20039;-61
2021/04/17 09:02:04;;;;;;;23.95;22.27;;;15.40;99.90;;;;;;5072726;28;20400;-60
2021/04/17 09:04:34;;;;;;;23.98;22.10;;;15.40;99.90;;;;;;5072750;28;20017;-61
2021/04/17 09:07:01;;;;;;;24.10;22.13;;;15.40;99.90;;;;;;5072666;28;20028;-60
2021/04/17 09:09:31;;;;;;;25.25;23.00;;;15.30;99.90;;;;;;5072654;28;20025;-60
2021/04/17 09:12:09;;;;;;;24.15;22.17;;;15.30;99.90;;;;;;5072808;28;20023;-60
2021/04/17 09:14:37;;;;;;;24.50;22.60;;;15.30;99.90;;;;;;5072793;28;20477;-60
2021/04/17 09:17:07;;;;;;;24.77;22.77;;;15.30;99.90;;;;;;5072890;28;20069;-61
2021/04/17 09:19:40;;;;;;;23.57;21.83;;;15.30;99.90;;;;;;5072725;28;20124;-61
2021/04/17 09:22:32;;;;;;;23.83;22.20;;;15.30;99.90;;;;;;5072444;28;20707;-61
2021/04/17 09:25:26;;;;;;;24.70;22.95;;;15.20;99.90;;;;;;5072556;28;20020;-60
2021/04/17 09:27:53;;;;;;;26.88;25.00;;;15.20;99.90;;;;;;5048900;28;20051;-60
2021/04/17 09:30:23;;;;;;;27.35;25.45;;;15.10;99.90;;;;;;5072503;28;20024;-60
2021/04/17 09:32:53;;;;;;;27.98;25.88;;;15.10;99.90;;;;;;5072310;28;20044;-59
2021/04/17 09:35:23;;;;;;;35.83;32.60;;;15.00;99.90;;;;;;5072498;28;20322;-59
2021/04/17 09:38:01;;;;;;;30.58;28.10;;;15.00;99.90;;;;;;5072413;28;20016;-59
2021/04/17 09:40:35;;;;;;;28.52;26.00;;;14.90;99.90;;;;;;5072115;28;20044;-59
2021/04/17 09:43:03;;;;;;;28.83;26.80;;;15.00;99.90;;;;;;5075970;28;20448;-60
2021/04/17 09:45:39;;;;;;;29.40;27.10;;;15.00;99.90;;;;;;5076223;28;20425;-61
2021/04/17 09:48:10;;;;;;;31.25;28.52;;;15.00;99.90;;;;;;5076254;28;20021;-59
2021/04/17 09:50:40;;;;;;;32.30;29.67;;;15.00;99.90;;;;;;5076169;28;20016;-60
2021/04/17 09:53:31;;;;;;;33.45;30.83;;;15.00;99.90;;;;;;5076133;28;20146;-61
2021/04/17 09:56:05;;;;;;;31.50;28.90;;;15.00;99.90;;;;;;5076363;28;20055;-60
2021/04/17 09:58:36;;;;;;;32.97;30.42;;;15.00;99.90;;;;;;5075997;28;20035;-60
2021/04/17 10:01:13;;;;;;;33.42;30.38;;;15.00;99.90;;;;;;5076139;28;20094;-60
2021/04/17 10:03:43;;;;;;;34.03;30.85;;;15.00;99.90;;;;;;5076037;28;20025;-62
2021/04/17 10:06:27;;;;;;;33.60;30.95;;;15.00;99.90;;;;;;5076136;28;20024;-61
2021/04/17 10:08:56;;;;;;;34.05;31.08;;;15.00;99.90;;;;;;5076096;28;20460;-61
2021/04/17 10:11:27;;;;;;;33.83;30.88;;;14.90;99.90;;;;;;5075720;28;20480;-60
2021/04/17 10:13:55;;;;;;;33.25;30.35;;;14.90;99.90;;;;;;5076003;28;20481;-61
2021/04/17 10:16:27;;;;;;;34.08;31.35;;;14.90;99.90;;;;;;5075704;28;20032;-61
2021/04/17 10:18:55;;;;;;;34.03;31.42;;;14.90;99.90;;;;;;5075640;28;20025;-60
2021/04/17 10:21:28;;;;;;;34.45;31.77;;;14.90;99.90;;;;;;5075658;28;20032;-60
2021/04/17 10:24:26;;;;;;;35.28;32.25;;;14.90;99.90;;;;;;5075640;28;20108;-60
2021/04/17 10:27:10;;;;;;;36.08;33.03;;;14.90;99.90;;;;;;5075737;28;20535;-60
2021/04/17 10:29:52;;;;;;;36.88;34.03;;;14.80;99.90;;;;;;5075855;28;20020;-60
2021/04/17 10:32:25;;;;;;;37.47;33.95;;;14.80;99.90;;;;;;5075432;28;20017;-61
2021/04/17 10:35:05;;;;;;;36.40;33.22;;;14.70;99.90;;;;;;5075342;28;20481;-60
2021/04/17 10:37:43;;;;;;;37.95;34.78;;;14.70;99.90;;;;;;5074067;28;20024;-61
2021/04/17 10:40:18;;;;;;;39.33;36.45;;;14.70;99.90;;;;;;5075170;28;20052;-61
2021/04/17 10:42:56;;;;;;;38.90;35.97;;;14.60;99.90;;;;;;5075093;28;20100;-60
2021/04/17 10:45:30;;;;;;;39.50;36.20;;;14.60;99.90;;;;;;5075099;28;20058;-62
2021/04/17 10:48:17;;;;;;;39.13;35.97;;;14.60;99.90;;;;;;5074850;28;20043;-60
2021/04/17 10:51:02;;;;;;;39.65;36.28;;;14.60;99.90;;;;;;5074782;28;20024;-61
2021/04/17 10:53:30;;;;;;;40.40;36.83;;;14.60;99.90;;;;;;5074020;28;20064;-62
2021/04/17 10:55:59;;;;;;;40.90;37.53;;;14.50;99.90;;;;;;5074760;28;20500;-60
2021/04/17 10:58:35;;;;;;;40.90;37.67;;;14.50;99.90;;;;;;5074823;28;20017;-61
2021/04/17 11:01:09;;;;;;;42.05;38.67;;;14.40;99.90;;;;;;5074712;28;20027;-60
2021/04/17 11:03:47;;;;;;;43.40;39.55;;;14.30;99.90;;;;;;5074526;28;20025;-61
2021/04/17 11:06:20;;;;;;;42.70;39.25;;;14.30;99.90;;;;;;5074588;28;20546;-60
2021/04/17 11:08:50;;;;;;;42.22;38.88;;;14.30;99.90;;;;;;5073326;28;20021;-60
2021/04/17 11:11:22;;;;;;;42.75;39.00;;;14.30;99.90;;;;;;5074311;28;20430;-60
2021/04/17 11:13:57;;;;;;;42.97;39.45;;;14.20;99.90;;;;;;5074393;28;20500;-61
2021/04/17 11:16:39;;;;;;;41.72;38.63;;;14.20;99.90;;;;;;5074389;28;20039;-59
2021/04/17 11:19:26;;;;;;;41.50;38.00;;;14.20;99.90;;;;;;5074313;28;20035;-60
2021/04/17 11:22:24;;;;;;;41.45;37.97;;;14.20;99.90;;;;;;5073200;28;20035;-60
2021/04/17 11:25:04;;;;;;;41.83;38.58;;;14.20;99.90;;;;;;5073879;28;20036;-60
2021/04/17 11:27:33;;;;;;;41.67;38.33;;;14.10;99.90;;;;;;5074236;28;20036;-60
2021/04/17 11:30:04;;;;;;;40.33;37.22;;;14.10;99.90;;;;;;5073217;28;20046;-62
2021/04/17 11:32:30;;;;;;;;;;;14.10;99.90;;;;;;5074878;28;20029;-60
2021/04/17 11:34:58;;;;;;;41.60;37.92;;;14.00;99.90;;;;;;5074196;28;19904;-61
2021/04/17 11:37:30;;;;;;;39.72;36.55;;;14.00;99.90;;;;;;5074094;28;20029;-59
2021/04/17 11:39:57;;;;;;;39.22;36.10;;;14.00;99.90;;;;;;5073755;28;20488;-60
2021/04/17 11:42:26;;;;;;;39.88;36.67;;;14.00;99.90;;;;;;5073927;28;20029;-60
2021/04/17 11:44:56;;;;;;;40.38;36.88;;;13.90;99.90;;;;;;5073955;28;20032;-58
2021/04/17 11:47:24;;;;;;;40.40;37.05;;;13.90;99.90;;;;;;5074038;28;20381;-59
2021/04/17 11:49:53;;;;;;;40.20;37.05;;;13.90;99.90;;;;;;5073869;28;20032;-59
2021/04/17 11:52:20;;;;;;;41.05;37.90;;;13.90;99.90;;;;;;5072697;28;20021;-59
2021/04/17 11:54:50;;;;;;;42.75;39.33;;;13.80;99.90;;;;;;5073932;28;20017;-61
2021/04/17 11:57:18;;;;;;;41.53;38.23;;;13.80;99.90;;;;;;5073907;28;20049;-59
2021/04/17 11:59:45;;;;;;;41.97;38.58;;;13.80;99.90;;;;;;5073748;28;20025;-59
2021/04/17 12:02:13;;;;;;;41.35;38.13;;;13.80;99.90;;;;;;5073725;28;20476;-59
2021/04/17 12:04:40;;;;;;;41.60;38.15;;;13.80;99.90;;;;;;5072259;28;20025;-60
2021/04/17 12:07:07;;;;;;;41.10;38.08;;;13.90;99.90;;;;;;5073608;28;20025;-60
2021/04/17 12:09:34;;;;;;;40.78;37.50;;;13.80;99.90;;;;;;5073640;28;20017;-60
2021/04/17 12:12:02;;;;;;;38.03;34.80;;;13.80;99.90;;;;;;5073508;28;20070;-59
2021/04/17 12:14:30;;;;;;;39.15;35.60;;;13.80;99.90;;;;;;5073516;28;20377;-59
2021/04/17 12:16:57;;;;;;;36.97;33.78;;;13.80;99.90;;;;;;5073414;28;20105;-59
2021/04/17 12:19:25;;;;;;;40.88;37.67;;;13.80;99.90;;;;;;5073483;28;20518;-60
2021/04/17 12:21:52;;;;;;;38.88;35.80;;;13.70;99.90;;;;;;5073427;28;20392;-60
2021/04/17 12:24:19;;;;;;;38.78;35.63;;;13.70;99.90;;;;;;5073387;28;20090;-59
2021/04/17 12:26:47;;;;;;;39.40;36.15;;;13.60;99.90;;;;;;5073292;28;20021;-59
2021/04/17 12:29:14;;;;;;;39.33;36.13;;;13.70;99.90;;;;;;5071969;28;20052;-60
2021/04/17 12:31:42;;;;;;;39.65;36.45;;;13.70;99.90;;;;;;5073262;28;20424;-60
2021/04/17 12:34:09;;;;;;;41.85;38.65;;;13.70;99.90;;;;;;5073320;28;20439;-60
2021/04/17 12:36:36;;;;;;;41.38;38.28;;;13.60;99.90;;;;;;5073304;28;20074;-60
2021/04/17 12:39:04;;;;;;;41.75;38.53;;;13.70;99.90;;;;;;5072925;28;20144;-60
2021/04/17 12:41:34;;;;;;;40.33;37.17;;;13.70;99.90;;;;;;5073066;28;20066;-60
2021/04/17 12:44:01;;;;;;;41.03;38.03;;;13.60;99.90;;;;;;5073100;28;20056;-59
2021/04/17 12:46:29;;;;;;;41.72;38.63;;;13.60;99.90;;;;;;5073089;28;20024;-59
2021/04/17 12:48:56;;;;;;;40.33;37.22;;;13.50;99.90;;;;;;5073037;28;20481;-59
2021/04/17 12:51:23;;;;;;;40.53;37.55;;;13.40;99.90;;;;;;5073041;28;20028;-60
2021/04/17 12:53:50;;;;;;;41.05;37.63;;;13.30;99.90;;;;;;5072947;28;20422;-60